ホニアラ の空港の天気 - METARとTAF

ホニアラ国際空港 ( AGGH / HIR ) - ソロモン諸島 ガダルカナル島ホニアラ
飛行場実況気象(Metar)
観測時間11/18 07:00 SBT (11/17 20:00 UTC)
風向・風速静穏 0m/s
視程10km以上
天気現象煙霧
少しの雲 雲底高度 490m
全天の4割程度の雲 雲底高度 9140m
気温25℃
湿度89%
気圧1008hPa
METARAGGH 172000Z 00000KT 9999 HZ FEW016 SCT300 25/23 Q1008
過去の天気等 Google飛行場航空写真 Wunderground天気予報

過去48時間のMETAR

飛行場予報(TAF)
発表時間: 11/18 04:00 SBT (11/17 17:00 UTC)
予報対象時間: 18日5時 SBT ~ 19日5時 SBT
風向・風速不定 2m/s
視程10km以上
少しの雲 雲底高度 520m
18日10時 SBT から
風向・風速北北東 5m/s
視程10km以上
少しの雲 雲底高度 610m
TAF AGGH 171700Z 1718/1818 VRB03KT 9999 FEW017
FM172300 02010KT 9999 FEW020 T 24 28 30 31 Q 1006 1008 1008 1006